Aeroporto :
LOGIN :

Iscrizione | Disclaimer

   EN    FR    IT 

 










Sommario :    VFR   VFR Marginale   IFR   IFR Intensivo   IFR Molto Intensivo
Visibilità : 
Base nubi : 
>= 8 km
>= 3000ft
5 / 8 km
1000 / 3000 ft
1500m / 5 km
500 / 1000 ft
800 / 1500m
200 / 500 ft
< 800m
< 200 ft
Simboli :   Temporali  Nebbia  Neve Forte  Precipitazioni Forti  Vento > 20 kt
SIGMETs :   Varie  Temporali  Ghiacco  Turbolenza  Onda orograficha  Ceneri Vulcaniche






- Altitudine del aeroporto : 764 ft
- Codice IATA : YEI


LTBR - Yenisehir AB

ULTIMO METAR :
  • 270820Z 04006KT 6000 -SHRA FEW022CB BKN025 BKN090 13/11 Q1015 TEMPO 4000 -TSRA

METARs OBSOLETI :
  • 270750Z 01004KT 350V050 5000 -SHRA FEW022CB BKN025 BKN090 13/12 Q1015 TEMPO 4000 -TSRA RMK RWY07 03008KT
  • 270720Z VRB02KT 6000 -SHRA FEW022CB BKN025 BKN090 13/12 Q1015 TEMPO FM0800 36012KT 4000 -TSRA
  • 270650Z 08004KT 9999 FEW022TCU BKN025 BKN090 13/11 Q1015 RESHRA TEMPO FM0800 36012KT 4000 -TSRA
  • 270620Z 36003KT 320V040 6000 -SHRA FEW022TCU BKN025 BKN090 12/11 Q1016 RESHRA TEMPO FM0800 4000 -TSRA RMK RWY07 VRB02KT
  • 270550Z 00000KT 4000 SHRA FEW022TCU SCT025 BKN090 12/11 Q1016 BECMG TL0650 9999 NSW RMK RWY07 24003KT

TAF TAF LTBR
Valido dal 27 a 06 ore il 28 a 06 ore UTC


270440Z 2706/2806 VRB02KT 9999 -SHRA SCT030 BKN090
TEMPO 2708/2712 36012KT 4000 -TSRA FEW020CB BKN025
PROB40
TEMPO 2712/2715 36012KT -TSRA FEW020CB BKN025
PROB30 2802/2806 4500 BR



MetMap, La meteo Aeronautica in un colpo d'occhio ! - Copyright ORBIFLY Dicembre 2007 - Disclaimer

ORBIFLY MET'MAP TEAM :

Programmazione e sviluppo : Alexandra Zaïnal
Concezione : Baudouin d'Aumeries
Aiuto per la programmazione : Marc-Olivier Méhu
Supporto tecnico e logistico : Manuel Goepfert
Aiuto per la traduzione : Arnaldo La Scala

Contatto : metmap@orbifly.com




FONTI E CREDITI :

   NOAA